sensor_id;sensor_type;location;lat;lon;timestamp;pressure;altitude;pressure_sealevel;temperature;humidity
36502;BME280;25393;46.108;3.390;2023-05-29T00:00:46;97728.13;;;16.97;94.18
36502;BME280;25393;46.108;3.390;2023-05-29T00:03:13;97720.88;;;16.73;96.15
36502;BME280;25393;46.108;3.390;2023-05-29T00:05:40;97717.22;;;16.67;92.94
36502;BME280;25393;46.108;3.390;2023-05-29T00:08:09;97722.53;;;16.74;90.20
36502;BME280;25393;46.108;3.390;2023-05-29T00:10:36;97727.53;;;16.64;91.73
36502;BME280;25393;46.108;3.390;2023-05-29T00:13:03;97713.53;;;16.55;91.06
36502;BME280;25393;46.108;3.390;2023-05-29T00:15:33;97714.56;;;16.54;91.14
36502;BME280;25393;46.108;3.390;2023-05-29T00:17:59;97720.91;;;16.66;87.87
36502;BME280;25393;46.108;3.390;2023-05-29T00:20:27;97718.28;;;16.60;88.14
36502;BME280;25393;46.108;3.390;2023-05-29T00:22:54;97719.94;;;16.47;90.84
36502;BME280;25393;46.108;3.390;2023-05-29T00:25:21;97704.94;;;16.46;88.12
36502;BME280;25393;46.108;3.390;2023-05-29T00:27:48;97719.91;;;16.54;87.17
36502;BME280;25393;46.108;3.390;2023-05-29T00:30:14;97724.03;;;16.63;89.21
36502;BME280;25393;46.108;3.390;2023-05-29T00:32:41;97724.63;;;16.65;89.55
36502;BME280;25393;46.108;3.390;2023-05-29T00:35:08;97721.50;;;16.68;91.46
36502;BME280;25393;46.108;3.390;2023-05-29T00:37:35;97726.69;;;16.63;86.99
36502;BME280;25393;46.108;3.390;2023-05-29T00:40:02;97726.91;;;16.55;88.19
36502;BME280;25393;46.108;3.390;2023-05-29T00:42:30;97729.41;;;16.57;90.54
36502;BME280;25393;46.108;3.390;2023-05-29T00:44:56;97717.22;;;16.54;93.26
36502;BME280;25393;46.108;3.390;2023-05-29T00:47:23;97734.53;;;16.58;93.49
36502;BME280;25393;46.108;3.390;2023-05-29T00:49:50;97724.66;;;16.52;92.70
36502;BME280;25393;46.108;3.390;2023-05-29T00:52:18;97727.53;;;16.50;93.51
36502;BME280;25393;46.108;3.390;2023-05-29T00:54:46;97708.84;;;16.44;92.20
36502;BME280;25393;46.108;3.390;2023-05-29T00:57:13;97718.38;;;16.33;92.06
36502;BME280;25393;46.108;3.390;2023-05-29T00:59:43;97709.56;;;16.26;94.09
36502;BME280;25393;46.108;3.390;2023-05-29T01:02:12;97718.19;;;16.28;96.01
36502;BME280;25393;46.108;3.390;2023-05-29T01:04:44;97702.38;;;16.20;93.61
36502;BME280;25393;46.108;3.390;2023-05-29T01:07:12;97707.13;;;16.18;93.61
36502;BME280;25393;46.108;3.390;2023-05-29T01:09:41;97704.06;;;16.15;94.20
36502;BME280;25393;46.108;3.390;2023-05-29T01:12:23;97695.22;;;16.14;92.56
36502;BME280;25393;46.108;3.390;2023-05-29T01:20:40;97706.09;;;16.19;93.15
36502;BME280;25393;46.108;3.390;2023-05-29T01:29:06;97694.81;;;16.11;88.46
36502;BME280;25393;46.108;3.390;2023-05-29T01:31:34;97700.16;;;16.17;88.26
36502;BME280;25393;46.108;3.390;2023-05-29T01:34:06;97688.22;;;16.13;87.47
36502;BME280;25393;46.108;3.390;2023-05-29T01:36:33;97696.66;;;16.17;84.07
36502;BME280;25393;46.108;3.390;2023-05-29T01:39:00;97704.25;;;16.20;85.81
36502;BME280;25393;46.108;3.390;2023-05-29T01:41:27;97680.91;;;15.95;89.27
36502;BME280;25393;46.108;3.390;2023-05-29T01:43:56;97703.94;;;15.96;87.25
36502;BME280;25393;46.108;3.390;2023-05-29T01:46:23;97692.06;;;15.79;87.50
36502;BME280;25393;46.108;3.390;2023-05-29T01:48:52;97699.22;;;15.85;87.60
36502;BME280;25393;46.108;3.390;2023-05-29T01:51:19;97700.06;;;15.79;86.09
36502;BME280;25393;46.108;3.390;2023-05-29T01:53:46;97705.00;;;15.76;84.29
36502;BME280;25393;46.108;3.390;2023-05-29T01:56:15;97703.97;;;15.77;86.15
36502;BME280;25393;46.108;3.390;2023-05-29T01:58:42;97703.78;;;15.72;85.59
36502;BME280;25393;46.108;3.390;2023-05-29T02:01:09;97708.09;;;15.66;85.45
36502;BME280;25393;46.108;3.390;2023-05-29T02:03:37;97694.56;;;15.55;86.21
36502;BME280;25393;46.108;3.390;2023-05-29T02:06:03;97697.66;;;15.52;86.67
36502;BME280;25393;46.108;3.390;2023-05-29T02:08:30;97698.69;;;15.51;84.81
36502;BME280;25393;46.108;3.390;2023-05-29T02:10:56;97708.75;;;15.48;87.52
36502;BME280;25393;46.108;3.390;2023-05-29T02:13:23;97716.38;;;15.52;90.23
36502;BME280;25393;46.108;3.390;2023-05-29T02:15:49;97699.50;;;15.44;88.37
36502;BME280;25393;46.108;3.390;2023-05-29T02:18:16;97712.22;;;15.56;87.86
36502;BME280;25393;46.108;3.390;2023-05-29T02:20:50;97705.25;;;15.55;88.91
36502;BME280;25393;46.108;3.390;2023-05-29T02:23:17;97702.56;;;15.48;90.03
36502;BME280;25393;46.108;3.390;2023-05-29T02:25:45;97714.28;;;15.54;88.71
36502;BME280;25393;46.108;3.390;2023-05-29T02:28:12;97701.75;;;15.41;88.66
36502;BME280;25393;46.108;3.390;2023-05-29T02:30:39;97713.47;;;15.33;89.16
36502;BME280;25393;46.108;3.390;2023-05-29T02:33:05;97696.63;;;15.26;88.57
36502;BME280;25393;46.108;3.390;2023-05-29T02:35:35;97707.91;;;15.28;89.40
36502;BME280;25393;46.108;3.390;2023-05-29T02:38:02;97698.66;;;15.24;89.24
36502;BME280;25393;46.108;3.390;2023-05-29T02:40:28;97710.38;;;15.36;92.81
36502;BME280;25393;46.108;3.390;2023-05-29T02:42:55;97712.03;;;15.24;93.43
36502;BME280;25393;46.108;3.390;2023-05-29T02:45:21;97708.13;;;15.14;89.71
36502;BME280;25393;46.108;3.390;2023-05-29T02:47:48;97705.44;;;15.07;90.18
36502;BME280;25393;46.108;3.390;2023-05-29T02:50:15;97720.44;;;15.08;89.97
36502;BME280;25393;46.108;3.390;2023-05-29T02:52:41;97718.78;;;15.00;89.82
36502;BME280;25393;46.108;3.390;2023-05-29T02:55:08;97716.72;;;15.02;88.47
36502;BME280;25393;46.108;3.390;2023-05-29T02:57:35;97710.19;;;15.05;89.78
36502;BME280;25393;46.108;3.390;2023-05-29T03:00:01;97711.19;;;15.04;91.13
36502;BME280;25393;46.108;3.390;2023-05-29T03:02:32;97709.78;;;15.02;92.65
36502;BME280;25393;46.108;3.390;2023-05-29T03:04:59;97704.44;;;15.02;89.66
36502;BME280;25393;46.108;3.390;2023-05-29T03:07:26;97699.50;;;15.05;85.72
36502;BME280;25393;46.108;3.390;2023-05-29T03:09:54;97692.09;;;15.07;85.85
36502;BME280;25393;46.108;3.390;2023-05-29T03:12:23;97697.44;;;15.20;85.84
36502;BME280;25393;46.108;3.390;2023-05-29T03:14:50;97705.66;;;15.25;84.88
36502;BME280;25393;46.108;3.390;2023-05-29T03:17:16;97685.16;;;15.13;85.48
36502;BME280;25393;46.108;3.390;2023-05-29T03:19:43;97704.84;;;15.12;87.88
36502;BME280;25393;46.108;3.390;2023-05-29T03:22:09;97701.75;;;15.08;85.02
36502;BME280;25393;46.108;3.390;2023-05-29T03:24:36;97698.69;;;15.05;83.08
36502;BME280;25393;46.108;3.390;2023-05-29T03:27:03;97694.59;;;15.02;82.29
36502;BME280;25393;46.108;3.390;2023-05-29T03:29:31;97696.63;;;14.87;84.03
36502;BME280;25393;46.108;3.390;2023-05-29T03:31:58;97707.47;;;14.92;84.14
36502;BME280;25393;46.108;3.390;2023-05-29T03:34:24;97700.72;;;14.83;82.17
36502;BME280;25393;46.108;3.390;2023-05-29T03:36:51;97710.56;;;14.82;82.59
36502;BME280;25393;46.108;3.390;2023-05-29T03:39:18;97717.97;;;14.87;81.65
36502;BME280;25393;46.108;3.390;2023-05-29T03:41:44;97715.06;;;14.82;82.55
36502;BME280;25393;46.108;3.390;2023-05-29T03:44:11;97719.81;;;14.80;85.42
36502;BME280;25393;46.108;3.390;2023-05-29T03:46:37;97722.66;;;14.78;90.08
36502;BME280;25393;46.108;3.390;2023-05-29T03:49:04;97710.31;;;14.58;91.03
36502;BME280;25393;46.108;3.390;2023-05-29T03:51:33;97728.16;;;14.57;89.03
36502;BME280;25393;46.108;3.390;2023-05-29T03:54:00;97711.69;;;14.40;86.99
36502;BME280;25393;46.108;3.390;2023-05-29T03:56:27;97724.22;;;14.40;86.23
36502;BME280;25393;46.108;3.390;2023-05-29T03:58:53;97726.88;;;14.40;86.23
36502;BME280;25393;46.108;3.390;2023-05-29T04:01:22;97716.38;;;14.32;86.76
36502;BME280;25393;46.108;3.390;2023-05-29T04:03:48;97739.63;;;14.51;85.60
36502;BME280;25393;46.108;3.390;2023-05-29T04:06:15;97726.09;;;14.46;84.93
36502;BME280;25393;46.108;3.390;2023-05-29T04:08:42;97744.13;;;14.50;83.99
36502;BME280;25393;46.108;3.390;2023-05-29T04:11:09;97750.09;;;14.53;87.36
36502;BME280;25393;46.108;3.390;2023-05-29T04:13:38;97744.94;;;14.44;87.43
36502;BME280;25393;46.108;3.390;2023-05-29T04:16:05;97741.84;;;14.34;85.81
36502;BME280;25393;46.108;3.390;2023-05-29T04:18:31;97746.50;;;14.32;84.25
36502;BME280;25393;46.108;3.390;2023-05-29T04:20:58;97749.56;;;14.29;85.18
36502;BME280;25393;46.108;3.390;2023-05-29T04:23:25;97728.22;;;14.23;84.66
36502;BME280;25393;46.108;3.390;2023-05-29T04:25:52;97739.94;;;14.28;84.48
36502;BME280;25393;46.108;3.390;2023-05-29T04:28:19;97730.69;;;14.24;85.41
36502;BME280;25393;46.108;3.390;2023-05-29T04:30:47;97750.47;;;14.43;87.96
36502;BME280;25393;46.108;3.390;2023-05-29T04:33:14;97752.50;;;14.34;90.04
36502;BME280;25393;46.108;3.390;2023-05-29T04:35:41;97750.69;;;14.41;89.43
36502;BME280;25393;46.108;3.390;2023-05-29T04:38:09;97754.59;;;14.45;90.90
36502;BME280;25393;46.108;3.390;2023-05-29T04:40:36;97760.75;;;14.46;89.68
36502;BME280;25393;46.108;3.390;2023-05-29T04:43:03;97748.41;;;14.38;90.79
36502;BME280;25393;46.108;3.390;2023-05-29T04:45:31;97760.94;;;14.44;92.29
36502;BME280;25393;46.108;3.390;2023-05-29T04:48:01;97764.22;;;14.46;93.32
36502;BME280;25393;46.108;3.390;2023-05-29T04:50:30;97742.69;;;14.41;92.13
36502;BME280;25393;46.108;3.390;2023-05-29T04:52:59;97773.31;;;14.59;91.50
36502;BME280;25393;46.108;3.390;2023-05-29T04:55:26;97769.22;;;14.63;90.96
36502;BME280;25393;46.108;3.390;2023-05-29T04:57:57;97776.22;;;14.70;90.63
36502;BME280;25393;46.108;3.390;2023-05-29T05:00:25;97776.22;;;14.77;90.77
36502;BME280;25393;46.108;3.390;2023-05-29T05:02:52;97777.44;;;14.74;91.03
36502;BME280;25393;46.108;3.390;2023-05-29T05:05:18;97766.16;;;14.72;90.93
36502;BME280;25393;46.108;3.390;2023-05-29T05:07:45;97781.16;;;14.80;91.53
36502;BME280;25393;46.108;3.390;2023-05-29T05:10:11;97772.16;;;14.81;92.19
36502;BME280;25393;46.108;3.390;2023-05-29T05:12:38;97784.06;;;14.91;93.45
36502;BME280;25393;46.108;3.390;2023-05-29T05:15:05;97788.19;;;15.14;94.87
36502;BME280;25393;46.108;3.390;2023-05-29T05:17:32;97787.16;;;15.08;95.30
36502;BME280;25393;46.108;3.390;2023-05-29T05:20:02;97785.75;;;15.19;96.17
36502;BME280;25393;46.108;3.390;2023-05-29T05:22:31;97787.41;;;15.26;96.51
36502;BME280;25393;46.108;3.390;2023-05-29T05:24:58;97777.97;;;15.30;96.07
36502;BME280;25393;46.108;3.390;2023-05-29T05:27:28;97796.06;;;15.55;94.38
36502;BME280;25393;46.108;3.390;2023-05-29T05:29:56;97775.50;;;15.48;94.94
36502;BME280;25393;46.108;3.390;2023-05-29T05:32:23;97794.00;;;15.57;95.52
36502;BME280;25393;46.108;3.390;2023-05-29T05:34:49;97793.81;;;15.65;95.18
36502;BME280;25393;46.108;3.390;2023-05-29T05:37:16;97794.22;;;15.68;94.50
36502;BME280;25393;46.108;3.390;2023-05-29T05:39:43;97791.97;;;15.65;94.74
36502;BME280;25393;46.108;3.390;2023-05-29T05:42:09;97780.84;;;15.55;94.75
36502;BME280;25393;46.108;3.390;2023-05-29T05:44:36;97811.47;;;15.66;95.02
36502;BME280;25393;46.108;3.390;2023-05-29T05:47:03;97811.66;;;15.77;94.92
36502;BME280;25393;46.108;3.390;2023-05-29T05:49:30;97808.56;;;15.87;95.24
36502;BME280;25393;46.108;3.390;2023-05-29T05:51:58;97811.66;;;15.97;94.59
36502;BME280;25393;46.108;3.390;2023-05-29T05:54:25;97799.72;;;15.99;94.61
36502;BME280;25393;46.108;3.390;2023-05-29T05:56:51;97817.75;;;16.24;95.05
36502;BME280;25393;46.108;3.390;2023-05-29T05:59:18;97805.22;;;16.24;93.93
36502;BME280;25393;46.108;3.390;2023-05-29T06:01:45;97807.84;;;16.37;94.59
36502;BME280;25393;46.108;3.390;2023-05-29T06:04:11;97813.53;;;16.54;94.02
36502;BME280;25393;46.108;3.390;2023-05-29T06:06:38;97814.59;;;16.60;92.73
36502;BME280;25393;46.108;3.390;2023-05-29T06:09:05;97819.88;;;16.73;92.27
36502;BME280;25393;46.108;3.390;2023-05-29T06:11:34;97811.47;;;16.69;93.03
36502;BME280;25393;46.108;3.390;2023-05-29T06:14:01;97818.53;;;16.95;93.83
36502;BME280;25393;46.108;3.390;2023-05-29T06:16:29;97804.63;;;17.11;92.20
36502;BME280;25393;46.108;3.390;2023-05-29T06:18:56;97802.88;;;17.30;90.52
36502;BME280;25393;46.108;3.390;2023-05-29T06:21:23;97806.59;;;17.29;89.32
36502;BME280;25393;46.108;3.390;2023-05-29T06:23:50;97823.19;;;17.13;91.74
36502;BME280;25393;46.108;3.390;2023-05-29T06:26:16;97821.34;;;17.07;93.98
36502;BME280;25393;46.108;3.390;2023-05-29T06:28:43;97800.97;;;17.06;95.68
36502;BME280;25393;46.108;3.390;2023-05-29T06:31:10;97808.47;;;17.22;95.88
36502;BME280;25393;46.108;3.390;2023-05-29T06:33:36;97799.88;;;17.44;96.40
36502;BME280;25393;46.108;3.390;2023-05-29T06:36:06;97823.22;;;17.69;91.74
36502;BME280;25393;46.108;3.390;2023-05-29T06:38:36;97808.19;;;17.68;93.11
36502;BME280;25393;46.108;3.390;2023-05-29T06:41:06;97822.84;;;17.90;94.43
36502;BME280;25393;46.108;3.390;2023-05-29T06:43:36;97794.09;;;17.97;92.01
36502;BME280;25393;46.108;3.390;2023-05-29T06:46:06;97804.50;;;18.05;89.43
36502;BME280;25393;46.108;3.390;2023-05-29T06:48:37;97804.41;;;17.75;90.85
36502;BME280;25393;46.108;3.390;2023-05-29T06:51:04;97814.94;;;17.70;91.02
36502;BME280;25393;46.108;3.390;2023-05-29T06:53:38;97815.63;;;17.90;92.93
36502;BME280;25393;46.108;3.390;2023-05-29T06:56:05;97809.75;;;18.18;91.67
36502;BME280;25393;46.108;3.390;2023-05-29T06:58:34;97806.78;;;18.26;91.42
36502;BME280;25393;46.108;3.390;2023-05-29T07:01:00;97797.47;;;18.29;87.66
36502;BME280;25393;46.108;3.390;2023-05-29T07:03:37;97812.28;;;18.31;87.81
36502;BME280;25393;46.108;3.390;2023-05-29T07:06:04;97803.50;;;18.24;88.09
36502;BME280;25393;46.108;3.390;2023-05-29T07:08:32;97806.19;;;18.24;88.26
36502;BME280;25393;46.108;3.390;2023-05-29T07:11:03;97794.94;;;18.34;88.43
36502;BME280;25393;46.108;3.390;2023-05-29T07:13:31;97796.72;;;18.58;87.72
36502;BME280;25393;46.108;3.390;2023-05-29T07:15:57;97804.84;;;18.88;85.57
36502;BME280;25393;46.108;3.390;2023-05-29T07:18:26;97804.94;;;18.93;83.61
36502;BME280;25393;46.108;3.390;2023-05-29T07:20:55;97798.34;;;18.95;83.21
36502;BME280;25393;46.108;3.390;2023-05-29T07:23:22;97799.22;;;19.19;84.82
36502;BME280;25393;46.108;3.390;2023-05-29T07:25:48;97811.94;;;19.54;83.04
36502;BME280;25393;46.108;3.390;2023-05-29T07:28:15;97804.41;;;19.85;81.90
36502;BME280;25393;46.108;3.390;2023-05-29T07:30:48;97796.91;;;20.11;79.63
36502;BME280;25393;46.108;3.390;2023-05-29T07:33:14;97807.22;;;20.37;81.69
36502;BME280;25393;46.108;3.390;2023-05-29T07:35:41;97806.22;;;20.66;79.60
36502;BME280;25393;46.108;3.390;2023-05-29T07:38:07;97800.31;;;20.81;77.19
36502;BME280;25393;46.108;3.390;2023-05-29T07:40:34;97801.53;;;21.02;76.78
36502;BME280;25393;46.108;3.390;2023-05-29T07:43:01;97807.56;;;21.20;75.68
36502;BME280;25393;46.108;3.390;2023-05-29T07:45:29;97798.78;;;21.41;74.00
36502;BME280;25393;46.108;3.390;2023-05-29T07:47:56;97796.53;;;21.67;74.55
36502;BME280;25393;46.108;3.390;2023-05-29T07:50:32;97794.81;;;21.94;69.87
36502;BME280;25393;46.108;3.390;2023-05-29T07:53:06;97800.91;;;22.23;68.45
36502;BME280;25393;46.108;3.390;2023-05-29T07:55:34;97799.63;;;22.47;69.42
36502;BME280;25393;46.108;3.390;2023-05-29T07:58:07;97808.06;;;22.72;66.24
36502;BME280;25393;46.108;3.390;2023-05-29T08:00:39;97802.59;;;22.89;62.47
36502;BME280;25393;46.108;3.390;2023-05-29T08:03:06;97804.06;;;23.02;58.77
36502;BME280;25393;46.108;3.390;2023-05-29T08:05:36;97797.09;;;23.06;59.15
36502;BME280;25393;46.108;3.390;2023-05-29T08:08:02;97794.50;;;23.16;60.17
36502;BME280;25393;46.108;3.390;2023-05-29T08:10:35;97791.91;;;23.26;56.19
36502;BME280;25393;46.108;3.390;2023-05-29T08:13:01;97800.38;;;23.34;58.61
36502;BME280;25393;46.108;3.390;2023-05-29T08:15:28;97801.38;;;23.50;59.99
36502;BME280;25393;46.108;3.390;2023-05-29T08:17:54;97810.72;;;23.69;57.87
36502;BME280;25393;46.108;3.390;2023-05-29T08:20:21;97807.28;;;23.79;56.33
36502;BME280;25393;46.108;3.390;2023-05-29T08:22:48;97807.94;;;23.91;52.54
36502;BME280;25393;46.108;3.390;2023-05-29T08:25:15;97811.75;;;24.00;52.05
36502;BME280;25393;46.108;3.390;2023-05-29T08:27:41;97812.06;;;24.04;54.75
36502;BME280;25393;46.108;3.390;2023-05-29T08:30:08;97806.53;;;24.20;55.20
36502;BME280;25393;46.108;3.390;2023-05-29T08:32:35;97807.13;;;24.32;54.82
36502;BME280;25393;46.108;3.390;2023-05-29T08:35:02;97818.88;;;24.48;53.70
36502;BME280;25393;46.108;3.390;2023-05-29T08:37:32;97806.22;;;24.64;54.01
36502;BME280;25393;46.108;3.390;2023-05-29T08:40:00;97809.84;;;24.84;53.56
36502;BME280;25393;46.108;3.390;2023-05-29T08:42:29;97815.44;;;24.68;52.66
36502;BME280;25393;46.108;3.390;2023-05-29T08:45:06;97799.28;;;24.88;52.82
36502;BME280;25393;46.108;3.390;2023-05-29T08:47:39;97806.44;;;25.14;53.16
36502;BME280;25393;46.108;3.390;2023-05-29T08:50:10;97806.47;;;25.34;51.40
36502;BME280;25393;46.108;3.390;2023-05-29T08:52:39;97802.47;;;25.62;52.35
36502;BME280;25393;46.108;3.390;2023-05-29T08:55:07;97795.13;;;25.83;51.90
36502;BME280;25393;46.108;3.390;2023-05-29T08:57:36;97803.28;;;26.18;49.61
36502;BME280;25393;46.108;3.390;2023-05-29T09:00:06;97800.81;;;26.17;49.01
36502;BME280;25393;46.108;3.390;2023-05-29T09:02:39;97805.97;;;26.33;50.17
36502;BME280;25393;46.108;3.390;2023-05-29T09:05:07;97796.25;;;26.17;48.51
36502;BME280;25393;46.108;3.390;2023-05-29T09:07:39;97806.75;;;26.39;49.14
36502;BME280;25393;46.108;3.390;2023-05-29T09:10:07;97800.69;;;26.67;48.01
36502;BME280;25393;46.108;3.390;2023-05-29T09:12:35;97794.44;;;26.77;47.02
36502;BME280;25393;46.108;3.390;2023-05-29T09:15:02;97793.84;;;26.90;46.53
36502;BME280;25393;46.108;3.390;2023-05-29T09:17:33;97801.25;;;27.28;45.66
36502;BME280;25393;46.108;3.390;2023-05-29T09:20:14;97812.75;;;27.64;44.21
36502;BME280;25393;46.108;3.390;2023-05-29T09:22:51;97810.16;;;27.83;43.29
36502;BME280;25393;46.108;3.390;2023-05-29T09:25:23;97810.47;;;28.05;41.05
36502;BME280;25393;46.108;3.390;2023-05-29T09:27:52;97815.25;;;28.23;42.14
36502;BME280;25393;46.108;3.390;2023-05-29T09:30:39;97807.16;;;28.66;43.42
36502;BME280;25393;46.108;3.390;2023-05-29T09:33:08;97818.03;;;29.13;43.13
36502;BME280;25393;46.108;3.390;2023-05-29T09:35:40;97804.50;;;29.46;41.54
36502;BME280;25393;46.108;3.390;2023-05-29T09:38:08;97812.19;;;29.62;40.37
36502;BME280;25393;46.108;3.390;2023-05-29T09:40:39;97799.75;;;29.70;39.30
36502;BME280;25393;46.108;3.390;2023-05-29T09:43:15;97803.22;;;29.75;38.44
36502;BME280;25393;46.108;3.390;2023-05-29T09:45:45;97800.06;;;29.31;39.75
36502;BME280;25393;46.108;3.390;2023-05-29T09:48:17;97802.16;;;29.58;41.38
36502;BME280;25393;46.108;3.390;2023-05-29T09:50:45;97803.13;;;29.99;39.76
36502;BME280;25393;46.108;3.390;2023-05-29T09:53:18;97802.53;;;30.62;39.21
36502;BME280;25393;46.108;3.390;2023-05-29T09:55:48;97804.56;;;30.84;38.33
36502;BME280;25393;46.108;3.390;2023-05-29T09:58:22;97803.03;;;31.18;36.79
36502;BME280;25393;46.108;3.390;2023-05-29T10:00:50;97809.66;;;31.53;38.50
36502;BME280;25393;46.108;3.390;2023-05-29T10:03:18;97809.88;;;32.01;37.60
36502;BME280;25393;46.108;3.390;2023-05-29T10:05:49;97804.47;;;31.88;34.72
36502;BME280;25393;46.108;3.390;2023-05-29T10:08:18;97802.28;;;31.98;35.05
36502;BME280;25393;46.108;3.390;2023-05-29T10:10:54;97802.81;;;32.31;34.71
36502;BME280;25393;46.108;3.390;2023-05-29T10:13:22;97792.81;;;32.66;34.57
36502;BME280;25393;46.108;3.390;2023-05-29T10:15:51;97790.81;;;32.97;33.36
36502;BME280;25393;46.108;3.390;2023-05-29T10:18:24;97786.78;;;32.86;32.25
36502;BME280;25393;46.108;3.390;2023-05-29T10:20:53;97784.94;;;32.73;32.12
36502;BME280;25393;46.108;3.390;2023-05-29T10:23:25;97792.88;;;32.83;32.30
36502;BME280;25393;46.108;3.390;2023-05-29T10:25:54;97789.19;;;32.88;32.03
36502;BME280;25393;46.108;3.390;2023-05-29T10:28:23;97783.59;;;33.10;30.89
36502;BME280;25393;46.108;3.390;2023-05-29T10:31:00;97786.13;;;32.98;31.34
36502;BME280;25393;46.108;3.390;2023-05-29T10:36:05;97777.34;;;32.70;32.44
36502;BME280;25393;46.108;3.390;2023-05-29T10:38:37;97786.44;;;32.79;30.14
36502;BME280;25393;46.108;3.390;2023-05-29T10:43:57;97783.94;;;33.26;29.66
36502;BME280;25393;46.108;3.390;2023-05-29T10:49:18;97778.47;;;33.51;30.44
36502;BME280;25393;46.108;3.390;2023-05-29T10:51:45;97772.03;;;33.39;30.05
36502;BME280;25393;46.108;3.390;2023-05-29T10:54:12;97791.22;;;33.47;28.94
36502;BME280;25393;46.108;3.390;2023-05-29T10:56:44;97780.28;;;33.73;29.45
36502;BME280;25393;46.108;3.390;2023-05-29T10:59:18;97784.81;;;33.78;28.74
36502;BME280;25393;46.108;3.390;2023-05-29T11:01:44;97782.84;;;33.95;28.96
36502;BME280;25393;46.108;3.390;2023-05-29T11:06:44;97786.84;;;34.06;29.16
36502;BME280;25393;46.108;3.390;2023-05-29T11:12:21;97781.34;;;34.06;29.12
36502;BME280;25393;46.108;3.390;2023-05-29T11:15:06;97789.53;;;34.41;28.64
36502;BME280;25393;46.108;3.390;2023-05-29T11:20:07;97795.06;;;34.32;27.79
36502;BME280;25393;46.108;3.390;2023-05-29T11:25:39;97767.56;;;34.32;26.96
36502;BME280;25393;46.108;3.390;2023-05-29T11:28:07;97781.50;;;34.19;27.36
36502;BME280;25393;46.108;3.390;2023-05-29T11:30:48;97786.69;;;34.03;28.66
36502;BME280;25393;46.108;3.390;2023-05-29T11:33:25;97778.59;;;34.06;27.89
36502;BME280;25393;46.108;3.390;2023-05-29T11:36:00;97767.00;;;33.84;27.69
36502;BME280;25393;46.108;3.390;2023-05-29T11:38:27;97777.19;;;33.92;29.12
36502;BME280;25393;46.108;3.390;2023-05-29T11:40:55;97775.88;;;33.89;27.63
36502;BME280;25393;46.108;3.390;2023-05-29T11:43:22;97769.94;;;33.70;27.20
36502;BME280;25393;46.108;3.390;2023-05-29T11:45:48;97769.28;;;33.56;27.49
36502;BME280;25393;46.108;3.390;2023-05-29T11:48:15;97765.06;;;33.58;28.42
36502;BME280;25393;46.108;3.390;2023-05-29T11:50:42;97755.19;;;33.83;27.77
36502;BME280;25393;46.108;3.390;2023-05-29T11:53:11;97754.38;;;33.23;27.55
36502;BME280;25393;46.108;3.390;2023-05-29T11:55:38;97754.50;;;33.00;29.80
36502;BME280;25393;46.108;3.390;2023-05-29T11:58:05;97751.94;;;33.04;29.67
36502;BME280;25393;46.108;3.390;2023-05-29T12:00:36;97735.28;;;33.09;29.74
36502;BME280;25393;46.108;3.390;2023-05-29T12:03:04;97739.03;;;33.47;29.37
36502;BME280;25393;46.108;3.390;2023-05-29T12:05:52;97739.19;;;33.85;28.18
36502;BME280;25393;46.108;3.390;2023-05-29T12:08:22;97732.09;;;34.39;28.87
36502;BME280;25393;46.108;3.390;2023-05-29T12:10:52;97729.94;;;34.45;28.92
36502;BME280;25393;46.108;3.390;2023-05-29T12:13:19;97732.69;;;34.62;27.37
36502;BME280;25393;46.108;3.390;2023-05-29T12:15:47;97731.81;;;34.70;27.14
36502;BME280;25393;46.108;3.390;2023-05-29T12:18:15;97728.94;;;34.58;26.88
36502;BME280;25393;46.108;3.390;2023-05-29T12:20:42;97734.97;;;34.51;27.96
36502;BME280;25393;46.108;3.390;2023-05-29T12:23:09;97726.13;;;34.75;26.85
36502;BME280;25393;46.108;3.390;2023-05-29T12:25:35;97715.44;;;34.74;25.85
36502;BME280;25393;46.108;3.390;2023-05-29T12:28:03;97731.63;;;34.75;28.05
36502;BME280;25393;46.108;3.390;2023-05-29T12:30:31;97717.44;;;34.56;26.85
36502;BME280;25393;46.108;3.390;2023-05-29T12:33:02;97718.91;;;34.53;27.17
36502;BME280;25393;46.108;3.390;2023-05-29T12:35:29;97724.38;;;34.91;28.24
36502;BME280;25393;46.108;3.390;2023-05-29T12:38:00;97716.38;;;34.78;25.06
36502;BME280;25393;46.108;3.390;2023-05-29T12:40:27;97733.69;;;34.78;26.41
36502;BME280;25393;46.108;3.390;2023-05-29T12:42:59;97725.47;;;34.70;26.05
36502;BME280;25393;46.108;3.390;2023-05-29T12:45:28;97717.22;;;34.99;27.24
36502;BME280;25393;46.108;3.390;2023-05-29T12:50:27;97713.09;;;35.05;26.39
36502;BME280;25393;46.108;3.390;2023-05-29T12:53:01;97716.53;;;35.43;26.87
36502;BME280;25393;46.108;3.390;2023-05-29T12:55:30;97711.06;;;35.64;26.16
36502;BME280;25393;46.108;3.390;2023-05-29T12:57:57;97711.50;;;35.66;26.49
36502;BME280;25393;46.108;3.390;2023-05-29T13:00:23;97709.59;;;35.58;25.34
36502;BME280;25393;46.108;3.390;2023-05-29T13:02:50;97696.41;;;35.31;24.32
36502;BME280;25393;46.108;3.390;2023-05-29T13:05:18;97711.38;;;35.00;25.49
36502;BME280;25393;46.108;3.390;2023-05-29T13:07:49;97708.97;;;34.70;25.81
36502;BME280;25393;46.108;3.390;2023-05-29T13:10:17;97696.84;;;34.71;25.38
36502;BME280;25393;46.108;3.390;2023-05-29T13:12:45;97707.28;;;35.06;26.15
36502;BME280;25393;46.108;3.390;2023-05-29T13:15:14;97693.63;;;35.51;25.42
36502;BME280;25393;46.108;3.390;2023-05-29T13:17:47;97695.75;;;35.34;24.67
36502;BME280;25393;46.108;3.390;2023-05-29T13:20:18;97690.84;;;35.39;25.13
36502;BME280;25393;46.108;3.390;2023-05-29T13:22:47;97691.22;;;35.29;24.82
36502;BME280;25393;46.108;3.390;2023-05-29T13:25:17;97685.44;;;35.01;24.56
36502;BME280;25393;46.108;3.390;2023-05-29T13:27:47;97694.63;;;34.55;25.38
36502;BME280;25393;46.108;3.390;2023-05-29T13:30:17;97686.44;;;34.47;24.91
36502;BME280;25393;46.108;3.390;2023-05-29T13:32:47;97674.06;;;34.24;25.16
36502;BME280;25393;46.108;3.390;2023-05-29T13:35:16;97668.78;;;34.19;23.22
36502;BME280;25393;46.108;3.390;2023-05-29T13:37:43;97674.84;;;33.86;22.71
36502;BME280;25393;46.108;3.390;2023-05-29T13:40:12;97678.63;;;33.73;22.82